sensor_id;sensor_type;location;lat;lon;timestamp;P1;durP1;ratioP1;P2;durP2;ratioP2
72113;SDS011;59989;46.220;19.888;2023-08-20T00:00:21;4.40;;;1.57;;
72113;SDS011;59989;46.220;19.888;2023-08-20T00:03:25;4.03;;;1.70;;
72113;SDS011;59989;46.220;19.888;2023-08-20T00:06:27;2.25;;;0.82;;
72113;SDS011;59989;46.220;19.888;2023-08-20T00:09:30;4.40;;;1.05;;
72113;SDS011;59989;46.220;19.888;2023-08-20T00:12:33;1.90;;;0.65;;
72113;SDS011;59989;46.220;19.888;2023-08-20T00:15:36;3.23;;;1.37;;
72113;SDS011;59989;46.220;19.888;2023-08-20T00:18:38;4.25;;;1.92;;
72113;SDS011;59989;46.220;19.888;2023-08-20T00:21:41;2.28;;;0.98;;
72113;SDS011;59989;46.220;19.888;2023-08-20T00:24:45;3.83;;;1.38;;
72113;SDS011;59989;46.220;19.888;2023-08-20T00:27:48;3.35;;;1.20;;
72113;SDS011;59989;46.220;19.888;2023-08-20T00:30:50;3.30;;;1.30;;
72113;SDS011;59989;46.220;19.888;2023-08-20T00:33:53;2.10;;;0.60;;
72113;SDS011;59989;46.220;19.888;2023-08-20T00:37:08;2.42;;;0.98;;
72113;SDS011;59989;46.220;19.888;2023-08-20T00:40:11;2.17;;;0.90;;
72113;SDS011;59989;46.220;19.888;2023-08-20T00:43:14;3.50;;;1.50;;
72113;SDS011;59989;46.220;19.888;2023-08-20T00:46:17;3.10;;;1.13;;
72113;SDS011;59989;46.220;19.888;2023-08-20T00:49:19;4.70;;;1.65;;
72113;SDS011;59989;46.220;19.888;2023-08-20T00:52:22;2.47;;;1.00;;
72113;SDS011;59989;46.220;19.888;2023-08-20T00:55:25;3.22;;;1.58;;
72113;SDS011;59989;46.220;19.888;2023-08-20T00:58:27;3.38;;;1.27;;
72113;SDS011;59989;46.220;19.888;2023-08-20T01:01:32;3.70;;;1.63;;
72113;SDS011;59989;46.220;19.888;2023-08-20T01:04:34;2.55;;;1.00;;
72113;SDS011;59989;46.220;19.888;2023-08-20T01:14:15;3.42;;;1.48;;
72113;SDS011;59989;46.220;19.888;2023-08-20T01:17:18;3.17;;;1.57;;
72113;SDS011;59989;46.220;19.888;2023-08-20T01:20:22;2.63;;;0.95;;
72113;SDS011;59989;46.220;19.888;2023-08-20T01:29:50;2.70;;;0.98;;
72113;SDS011;59989;46.220;19.888;2023-08-20T01:32:53;4.00;;;1.30;;
72113;SDS011;59989;46.220;19.888;2023-08-20T01:35:56;2.15;;;0.75;;
72113;SDS011;59989;46.220;19.888;2023-08-20T01:38:59;2.35;;;0.95;;
72113;SDS011;59989;46.220;19.888;2023-08-20T01:42:01;3.30;;;1.45;;
72113;SDS011;59989;46.220;19.888;2023-08-20T01:45:04;2.10;;;0.75;;
72113;SDS011;59989;46.220;19.888;2023-08-20T01:48:07;2.87;;;1.00;;
72113;SDS011;59989;46.220;19.888;2023-08-20T01:51:10;3.20;;;1.38;;
72113;SDS011;59989;46.220;19.888;2023-08-20T01:54:12;2.70;;;0.90;;
72113;SDS011;59989;46.220;19.888;2023-08-20T01:57:15;2.42;;;1.00;;
72113;SDS011;59989;46.220;19.888;2023-08-20T02:00:18;2.83;;;1.23;;
72113;SDS011;59989;46.220;19.888;2023-08-20T02:03:20;2.17;;;0.97;;
72113;SDS011;59989;46.220;19.888;2023-08-20T02:06:23;2.90;;;0.98;;
72113;SDS011;59989;46.220;19.888;2023-08-20T02:09:26;3.90;;;1.05;;
72113;SDS011;59989;46.220;19.888;2023-08-20T02:12:28;1.98;;;0.70;;
72113;SDS011;59989;46.220;19.888;2023-08-20T02:15:30;3.95;;;1.50;;
72113;SDS011;59989;46.220;19.888;2023-08-20T02:18:34;2.47;;;0.90;;
72113;SDS011;59989;46.220;19.888;2023-08-20T02:21:36;3.53;;;1.33;;
72113;SDS011;59989;46.220;19.888;2023-08-20T02:24:39;2.28;;;0.73;;
72113;SDS011;59989;46.220;19.888;2023-08-20T02:27:42;2.05;;;0.70;;
72113;SDS011;59989;46.220;19.888;2023-08-20T02:30:46;3.38;;;1.08;;
72113;SDS011;59989;46.220;19.888;2023-08-20T02:33:49;2.13;;;0.70;;
72113;SDS011;59989;46.220;19.888;2023-08-20T02:36:52;2.30;;;0.73;;
72113;SDS011;59989;46.220;19.888;2023-08-20T02:39:54;2.47;;;0.98;;
72113;SDS011;59989;46.220;19.888;2023-08-20T02:42:56;2.55;;;1.25;;
72113;SDS011;59989;46.220;19.888;2023-08-20T02:45:59;2.78;;;1.27;;
72113;SDS011;59989;46.220;19.888;2023-08-20T02:49:02;3.53;;;1.27;;
72113;SDS011;59989;46.220;19.888;2023-08-20T02:52:04;3.45;;;1.15;;
72113;SDS011;59989;46.220;19.888;2023-08-20T02:55:07;3.58;;;1.52;;
72113;SDS011;59989;46.220;19.888;2023-08-20T02:58:10;2.53;;;0.82;;
72113;SDS011;59989;46.220;19.888;2023-08-20T03:01:22;3.13;;;1.45;;
72113;SDS011;59989;46.220;19.888;2023-08-20T03:04:28;2.20;;;0.93;;
72113;SDS011;59989;46.220;19.888;2023-08-20T03:07:31;5.00;;;1.73;;
72113;SDS011;59989;46.220;19.888;2023-08-20T03:10:34;3.15;;;1.15;;
72113;SDS011;59989;46.220;19.888;2023-08-20T03:13:37;2.75;;;1.00;;
72113;SDS011;59989;46.220;19.888;2023-08-20T03:16:39;2.97;;;1.02;;
72113;SDS011;59989;46.220;19.888;2023-08-20T03:19:55;3.63;;;1.10;;
72113;SDS011;59989;46.220;19.888;2023-08-20T03:22:59;2.78;;;1.08;;
72113;SDS011;59989;46.220;19.888;2023-08-20T03:26:01;3.35;;;1.08;;
72113;SDS011;59989;46.220;19.888;2023-08-20T03:29:04;2.15;;;0.70;;
72113;SDS011;59989;46.220;19.888;2023-08-20T03:32:07;2.55;;;1.00;;
72113;SDS011;59989;46.220;19.888;2023-08-20T03:35:10;2.63;;;0.80;;
72113;SDS011;59989;46.220;19.888;2023-08-20T03:38:13;2.35;;;1.02;;
72113;SDS011;59989;46.220;19.888;2023-08-20T03:41:15;3.17;;;1.20;;
72113;SDS011;59989;46.220;19.888;2023-08-20T03:44:20;2.25;;;0.77;;
72113;SDS011;59989;46.220;19.888;2023-08-20T03:47:24;4.85;;;1.35;;
72113;SDS011;59989;46.220;19.888;2023-08-20T03:50:26;2.23;;;0.80;;
72113;SDS011;59989;46.220;19.888;2023-08-20T03:53:29;3.08;;;1.23;;
72113;SDS011;59989;46.220;19.888;2023-08-20T03:56:32;3.20;;;1.33;;
72113;SDS011;59989;46.220;19.888;2023-08-20T03:59:34;2.75;;;0.95;;
72113;SDS011;59989;46.220;19.888;2023-08-20T04:02:36;3.00;;;1.30;;
72113;SDS011;59989;46.220;19.888;2023-08-20T04:05:39;2.40;;;0.80;;
72113;SDS011;59989;46.220;19.888;2023-08-20T04:08:42;3.10;;;1.20;;
72113;SDS011;59989;46.220;19.888;2023-08-20T04:11:45;2.05;;;0.80;;
72113;SDS011;59989;46.220;19.888;2023-08-20T04:14:48;3.78;;;1.50;;
72113;SDS011;59989;46.220;19.888;2023-08-20T04:17:51;2.42;;;1.25;;
72113;SDS011;59989;46.220;19.888;2023-08-20T04:20:55;2.43;;;0.70;;
72113;SDS011;59989;46.220;19.888;2023-08-20T04:23:59;2.65;;;1.17;;
72113;SDS011;59989;46.220;19.888;2023-08-20T04:27:02;3.72;;;1.35;;
72113;SDS011;59989;46.220;19.888;2023-08-20T04:30:05;3.92;;;0.93;;
72113;SDS011;59989;46.220;19.888;2023-08-20T04:33:08;2.78;;;1.05;;
72113;SDS011;59989;46.220;19.888;2023-08-20T04:36:13;2.10;;;0.63;;
72113;SDS011;59989;46.220;19.888;2023-08-20T04:39:15;3.33;;;1.10;;
72113;SDS011;59989;46.220;19.888;2023-08-20T04:42:22;2.55;;;1.05;;
72113;SDS011;59989;46.220;19.888;2023-08-20T04:45:25;3.78;;;1.08;;
72113;SDS011;59989;46.220;19.888;2023-08-20T04:48:28;2.45;;;0.82;;
72113;SDS011;59989;46.220;19.888;2023-08-20T04:51:31;3.37;;;0.80;;
72113;SDS011;59989;46.220;19.888;2023-08-20T04:54:33;2.47;;;0.82;;
72113;SDS011;59989;46.220;19.888;2023-08-20T04:57:37;1.70;;;0.70;;
72113;SDS011;59989;46.220;19.888;2023-08-20T05:00:39;2.90;;;1.20;;
72113;SDS011;59989;46.220;19.888;2023-08-20T05:03:46;2.47;;;0.85;;
72113;SDS011;59989;46.220;19.888;2023-08-20T05:06:49;2.90;;;1.30;;
72113;SDS011;59989;46.220;19.888;2023-08-20T05:09:54;2.78;;;1.13;;
72113;SDS011;59989;46.220;19.888;2023-08-20T05:12:56;3.38;;;1.45;;
72113;SDS011;59989;46.220;19.888;2023-08-20T05:15:59;1.88;;;0.70;;
72113;SDS011;59989;46.220;19.888;2023-08-20T05:19:01;2.70;;;1.05;;
72113;SDS011;59989;46.220;19.888;2023-08-20T05:22:04;3.30;;;1.20;;
72113;SDS011;59989;46.220;19.888;2023-08-20T05:25:09;2.97;;;1.17;;
72113;SDS011;59989;46.220;19.888;2023-08-20T05:28:12;3.40;;;1.23;;
72113;SDS011;59989;46.220;19.888;2023-08-20T05:31:15;4.03;;;1.77;;
72113;SDS011;59989;46.220;19.888;2023-08-20T05:34:18;2.83;;;1.33;;
72113;SDS011;59989;46.220;19.888;2023-08-20T05:37:20;4.73;;;1.77;;
72113;SDS011;59989;46.220;19.888;2023-08-20T05:40:23;3.25;;;1.15;;
72113;SDS011;59989;46.220;19.888;2023-08-20T05:43:25;3.50;;;1.42;;
72113;SDS011;59989;46.220;19.888;2023-08-20T05:46:28;3.17;;;1.23;;
72113;SDS011;59989;46.220;19.888;2023-08-20T05:49:30;2.78;;;1.23;;
72113;SDS011;59989;46.220;19.888;2023-08-20T05:52:33;3.37;;;1.73;;
72113;SDS011;59989;46.220;19.888;2023-08-20T05:55:36;3.58;;;1.45;;
72113;SDS011;59989;46.220;19.888;2023-08-20T05:58:40;3.97;;;1.52;;
72113;SDS011;59989;46.220;19.888;2023-08-20T06:01:42;3.92;;;1.95;;
72113;SDS011;59989;46.220;19.888;2023-08-20T06:04:45;3.60;;;1.52;;
72113;SDS011;59989;46.220;19.888;2023-08-20T06:07:48;2.97;;;1.20;;
72113;SDS011;59989;46.220;19.888;2023-08-20T06:10:50;2.72;;;1.00;;
72113;SDS011;59989;46.220;19.888;2023-08-20T06:13:53;2.67;;;0.80;;
72113;SDS011;59989;46.220;19.888;2023-08-20T06:16:55;3.00;;;1.25;;
72113;SDS011;59989;46.220;19.888;2023-08-20T06:19:58;2.13;;;0.82;;
72113;SDS011;59989;46.220;19.888;2023-08-20T06:23:00;2.30;;;1.00;;
72113;SDS011;59989;46.220;19.888;2023-08-20T06:26:02;3.35;;;1.40;;
72113;SDS011;59989;46.220;19.888;2023-08-20T06:29:05;1.65;;;0.60;;
72113;SDS011;59989;46.220;19.888;2023-08-20T06:32:08;3.88;;;1.67;;
72113;SDS011;59989;46.220;19.888;2023-08-20T06:35:10;2.95;;;0.98;;
72113;SDS011;59989;46.220;19.888;2023-08-20T06:38:13;2.70;;;0.90;;
72113;SDS011;59989;46.220;19.888;2023-08-20T06:41:15;2.70;;;0.88;;
72113;SDS011;59989;46.220;19.888;2023-08-20T06:44:18;4.20;;;1.95;;
72113;SDS011;59989;46.220;19.888;2023-08-20T06:47:20;1.98;;;0.65;;
72113;SDS011;59989;46.220;19.888;2023-08-20T06:50:23;3.13;;;1.20;;
72113;SDS011;59989;46.220;19.888;2023-08-20T06:53:25;3.20;;;1.23;;
72113;SDS011;59989;46.220;19.888;2023-08-20T06:56:28;3.50;;;1.42;;
72113;SDS011;59989;46.220;19.888;2023-08-20T06:59:30;3.00;;;1.15;;
72113;SDS011;59989;46.220;19.888;2023-08-20T07:02:33;3.03;;;1.13;;
72113;SDS011;59989;46.220;19.888;2023-08-20T07:05:35;2.72;;;1.10;;
72113;SDS011;59989;46.220;19.888;2023-08-20T07:08:38;3.77;;;1.40;;
72113;SDS011;59989;46.220;19.888;2023-08-20T07:11:41;3.67;;;1.42;;
72113;SDS011;59989;46.220;19.888;2023-08-20T07:14:44;2.67;;;0.93;;
72113;SDS011;59989;46.220;19.888;2023-08-20T07:17:46;2.85;;;1.17;;
72113;SDS011;59989;46.220;19.888;2023-08-20T07:20:49;2.55;;;1.05;;
72113;SDS011;59989;46.220;19.888;2023-08-20T07:23:53;3.60;;;1.37;;
72113;SDS011;59989;46.220;19.888;2023-08-20T07:26:55;3.15;;;1.40;;
72113;SDS011;59989;46.220;19.888;2023-08-20T07:30:02;3.60;;;1.38;;
72113;SDS011;59989;46.220;19.888;2023-08-20T07:33:06;2.50;;;0.90;;
72113;SDS011;59989;46.220;19.888;2023-08-20T07:36:09;2.97;;;1.13;;
72113;SDS011;59989;46.220;19.888;2023-08-20T07:39:12;2.30;;;0.80;;
72113;SDS011;59989;46.220;19.888;2023-08-20T07:42:19;3.60;;;1.48;;
72113;SDS011;59989;46.220;19.888;2023-08-20T07:45:21;3.15;;;1.10;;
72113;SDS011;59989;46.220;19.888;2023-08-20T07:48:23;3.88;;;1.52;;
72113;SDS011;59989;46.220;19.888;2023-08-20T07:51:26;2.83;;;1.02;;
72113;SDS011;59989;46.220;19.888;2023-08-20T07:54:28;3.97;;;1.50;;
72113;SDS011;59989;46.220;19.888;2023-08-20T07:57:31;2.63;;;1.00;;
72113;SDS011;59989;46.220;19.888;2023-08-20T08:00:34;2.90;;;1.20;;
72113;SDS011;59989;46.220;19.888;2023-08-20T08:03:37;2.55;;;0.85;;
72113;SDS011;59989;46.220;19.888;2023-08-20T08:06:40;2.70;;;1.02;;
72113;SDS011;59989;46.220;19.888;2023-08-20T08:09:42;2.77;;;1.07;;
72113;SDS011;59989;46.220;19.888;2023-08-20T08:12:45;2.33;;;0.80;;
72113;SDS011;59989;46.220;19.888;2023-08-20T08:15:48;2.85;;;1.02;;
72113;SDS011;59989;46.220;19.888;2023-08-20T08:18:50;2.63;;;1.02;;
72113;SDS011;59989;46.220;19.888;2023-08-20T08:21:53;2.28;;;0.85;;
72113;SDS011;59989;46.220;19.888;2023-08-20T08:24:56;2.80;;;0.93;;
72113;SDS011;59989;46.220;19.888;2023-08-20T08:27:58;2.83;;;0.95;;
72113;SDS011;59989;46.220;19.888;2023-08-20T08:31:02;3.65;;;1.40;;
72113;SDS011;59989;46.220;19.888;2023-08-20T08:34:08;3.00;;;1.33;;
72113;SDS011;59989;46.220;19.888;2023-08-20T08:37:11;3.85;;;1.17;;
72113;SDS011;59989;46.220;19.888;2023-08-20T08:40:14;3.00;;;1.20;;
72113;SDS011;59989;46.220;19.888;2023-08-20T08:43:18;2.67;;;0.98;;
72113;SDS011;59989;46.220;19.888;2023-08-20T08:46:20;3.17;;;1.15;;
72113;SDS011;59989;46.220;19.888;2023-08-20T08:49:23;4.07;;;1.63;;
72113;SDS011;59989;46.220;19.888;2023-08-20T08:52:27;5.20;;;2.10;;
72113;SDS011;59989;46.220;19.888;2023-08-20T08:55:30;3.63;;;1.40;;
72113;SDS011;59989;46.220;19.888;2023-08-20T08:58:33;3.63;;;1.38;;
72113;SDS011;59989;46.220;19.888;2023-08-20T09:01:38;3.42;;;1.38;;
72113;SDS011;59989;46.220;19.888;2023-08-20T09:04:42;4.00;;;1.08;;
72113;SDS011;59989;46.220;19.888;2023-08-20T09:07:44;2.88;;;1.15;;
72113;SDS011;59989;46.220;19.888;2023-08-20T09:10:49;3.13;;;1.13;;
72113;SDS011;59989;46.220;19.888;2023-08-20T09:13:53;3.72;;;1.35;;
72113;SDS011;59989;46.220;19.888;2023-08-20T09:16:59;3.00;;;1.20;;
72113;SDS011;59989;46.220;19.888;2023-08-20T09:20:03;3.55;;;1.50;;
72113;SDS011;59989;46.220;19.888;2023-08-20T09:23:12;3.28;;;1.33;;
72113;SDS011;59989;46.220;19.888;2023-08-20T09:26:17;2.87;;;1.13;;
72113;SDS011;59989;46.220;19.888;2023-08-20T09:29:20;2.63;;;1.05;;
72113;SDS011;59989;46.220;19.888;2023-08-20T09:32:26;3.00;;;1.27;;
72113;SDS011;59989;46.220;19.888;2023-08-20T09:35:30;3.05;;;1.10;;
72113;SDS011;59989;46.220;19.888;2023-08-20T09:38:36;3.53;;;1.40;;
72113;SDS011;59989;46.220;19.888;2023-08-20T09:41:42;2.77;;;1.07;;
72113;SDS011;59989;46.220;19.888;2023-08-20T09:44:47;3.42;;;1.30;;
72113;SDS011;59989;46.220;19.888;2023-08-20T09:47:56;3.88;;;1.63;;
72113;SDS011;59989;46.220;19.888;2023-08-20T09:51:00;3.38;;;1.35;;
72113;SDS011;59989;46.220;19.888;2023-08-20T09:54:12;3.08;;;1.10;;
72113;SDS011;59989;46.220;19.888;2023-08-20T09:57:40;3.77;;;1.50;;
72113;SDS011;59989;46.220;19.888;2023-08-20T10:00:48;3.35;;;1.27;;
72113;SDS011;59989;46.220;19.888;2023-08-20T10:03:53;3.42;;;1.33;;
72113;SDS011;59989;46.220;19.888;2023-08-20T10:06:56;3.08;;;1.25;;
72113;SDS011;59989;46.220;19.888;2023-08-20T10:10:01;3.10;;;1.13;;
72113;SDS011;59989;46.220;19.888;2023-08-20T10:13:06;3.57;;;1.37;;
72113;SDS011;59989;46.220;19.888;2023-08-20T10:16:12;3.20;;;1.20;;
72113;SDS011;59989;46.220;19.888;2023-08-20T10:19:16;3.78;;;1.45;;
72113;SDS011;59989;46.220;19.888;2023-08-20T10:22:19;3.25;;;1.23;;
72113;SDS011;59989;46.220;19.888;2023-08-20T10:25:23;4.03;;;1.60;;
72113;SDS011;59989;46.220;19.888;2023-08-20T10:28:26;3.53;;;1.30;;
72113;SDS011;59989;46.220;19.888;2023-08-20T10:31:30;3.67;;;1.35;;
72113;SDS011;59989;46.220;19.888;2023-08-20T10:34:35;4.13;;;1.40;;
72113;SDS011;59989;46.220;19.888;2023-08-20T10:41:05;3.10;;;1.30;;
72113;SDS011;59989;46.220;19.888;2023-08-20T10:44:09;3.63;;;1.40;;
72113;SDS011;59989;46.220;19.888;2023-08-20T10:47:15;2.83;;;1.20;;
72113;SDS011;59989;46.220;19.888;2023-08-20T10:50:19;3.40;;;1.40;;
72113;SDS011;59989;46.220;19.888;2023-08-20T10:53:22;3.45;;;1.25;;
72113;SDS011;59989;46.220;19.888;2023-08-20T10:56:37;3.22;;;1.30;;
72113;SDS011;59989;46.220;19.888;2023-08-20T10:59:42;3.23;;;1.20;;
72113;SDS011;59989;46.220;19.888;2023-08-20T11:02:45;3.28;;;1.20;;
72113;SDS011;59989;46.220;19.888;2023-08-20T11:05:49;4.32;;;1.80;;
72113;SDS011;59989;46.220;19.888;2023-08-20T11:08:52;2.65;;;1.00;;
72113;SDS011;59989;46.220;19.888;2023-08-20T11:11:56;3.88;;;1.63;;
72113;SDS011;59989;46.220;19.888;2023-08-20T11:15:00;2.97;;;1.13;;
72113;SDS011;59989;46.220;19.888;2023-08-20T11:18:04;3.35;;;1.20;;
72113;SDS011;59989;46.220;19.888;2023-08-20T11:21:07;3.63;;;1.35;;
72113;SDS011;59989;46.220;19.888;2023-08-20T11:24:10;3.15;;;1.17;;
72113;SDS011;59989;46.220;19.888;2023-08-20T11:27:13;3.65;;;1.45;;
72113;SDS011;59989;46.220;19.888;2023-08-20T11:30:16;3.73;;;1.50;;
72113;SDS011;59989;46.220;19.888;2023-08-20T11:33:19;4.18;;;1.50;;
72113;SDS011;59989;46.220;19.888;2023-08-20T11:36:21;3.90;;;1.50;;
72113;SDS011;59989;46.220;19.888;2023-08-20T11:39:24;3.55;;;1.48;;
72113;SDS011;59989;46.220;19.888;2023-08-20T11:42:26;3.72;;;1.42;;
72113;SDS011;59989;46.220;19.888;2023-08-20T11:45:29;3.83;;;1.40;;
72113;SDS011;59989;46.220;19.888;2023-08-20T11:48:31;4.25;;;1.60;;
72113;SDS011;59989;46.220;19.888;2023-08-20T11:51:37;4.25;;;1.77;;
72113;SDS011;59989;46.220;19.888;2023-08-20T11:54:44;4.15;;;1.80;;
72113;SDS011;59989;46.220;19.888;2023-08-20T11:57:49;3.97;;;1.70;;
72113;SDS011;59989;46.220;19.888;2023-08-20T12:00:53;4.47;;;1.77;;
72113;SDS011;59989;46.220;19.888;2023-08-20T12:03:59;4.32;;;1.55;;
72113;SDS011;59989;46.220;19.888;2023-08-20T12:07:15;4.55;;;1.80;;
72113;SDS011;59989;46.220;19.888;2023-08-20T12:10:21;4.15;;;1.80;;
72113;SDS011;59989;46.220;19.888;2023-08-20T12:13:24;4.25;;;1.70;;
72113;SDS011;59989;46.220;19.888;2023-08-20T12:16:26;3.20;;;1.30;;
72113;SDS011;59989;46.220;19.888;2023-08-20T12:19:29;4.18;;;1.80;;
72113;SDS011;59989;46.220;19.888;2023-08-20T12:22:31;4.18;;;1.77;;
72113;SDS011;59989;46.220;19.888;2023-08-20T12:25:35;3.40;;;1.38;;
72113;SDS011;59989;46.220;19.888;2023-08-20T12:28:38;5.70;;;2.38;;
72113;SDS011;59989;46.220;19.888;2023-08-20T12:31:40;4.13;;;1.90;;
72113;SDS011;59989;46.220;19.888;2023-08-20T12:34:44;4.68;;;2.20;;
72113;SDS011;59989;46.220;19.888;2023-08-20T12:37:46;5.00;;;2.00;;
72113;SDS011;59989;46.220;19.888;2023-08-20T12:40:49;5.30;;;2.10;;
72113;SDS011;59989;46.220;19.888;2023-08-20T12:43:51;4.63;;;1.90;;
72113;SDS011;59989;46.220;19.888;2023-08-20T12:46:54;4.20;;;1.70;;
72113;SDS011;59989;46.220;19.888;2023-08-20T12:49:56;4.82;;;2.25;;
72113;SDS011;59989;46.220;19.888;2023-08-20T12:52:59;4.38;;;1.95;;
72113;SDS011;59989;46.220;19.888;2023-08-20T12:56:01;4.85;;;2.10;;
72113;SDS011;59989;46.220;19.888;2023-08-20T12:59:03;4.35;;;1.90;;
72113;SDS011;59989;46.220;19.888;2023-08-20T13:02:06;4.87;;;2.30;;
72113;SDS011;59989;46.220;19.888;2023-08-20T13:05:09;4.80;;;2.05;;
72113;SDS011;59989;46.220;19.888;2023-08-20T13:08:13;5.53;;;2.28;;
72113;SDS011;59989;46.220;19.888;2023-08-20T13:11:16;4.28;;;1.90;;
72113;SDS011;59989;46.220;19.888;2023-08-20T13:14:21;4.68;;;2.17;;
72113;SDS011;59989;46.220;19.888;2023-08-20T13:17:24;4.67;;;2.07;;
72113;SDS011;59989;46.220;19.888;2023-08-20T13:20:26;4.53;;;1.98;;
72113;SDS011;59989;46.220;19.888;2023-08-20T13:23:29;5.15;;;2.42;;
72113;SDS011;59989;46.220;19.888;2023-08-20T13:26:32;4.95;;;2.50;;
72113;SDS011;59989;46.220;19.888;2023-08-20T13:29:34;4.90;;;2.10;;
72113;SDS011;59989;46.220;19.888;2023-08-20T13:32:37;5.03;;;2.40;;
72113;SDS011;59989;46.220;19.888;2023-08-20T13:35:41;5.03;;;2.53;;
72113;SDS011;59989;46.220;19.888;2023-08-20T13:38:44;5.00;;;2.30;;
72113;SDS011;59989;46.220;19.888;2023-08-20T13:41:48;4.72;;;2.30;;
72113;SDS011;59989;46.220;19.888;2023-08-20T13:44:51;5.00;;;2.30;;
72113;SDS011;59989;46.220;19.888;2023-08-20T13:47:54;5.90;;;2.30;;
72113;SDS011;59989;46.220;19.888;2023-08-20T13:50:56;4.47;;;2.17;;
72113;SDS011;59989;46.220;19.888;2023-08-20T13:53:59;4.90;;;2.35;;
72113;SDS011;59989;46.220;19.888;2023-08-20T13:57:02;5.65;;;2.45;;
72113;SDS011;59989;46.220;19.888;2023-08-20T14:00:05;5.07;;;2.33;;
72113;SDS011;59989;46.220;19.888;2023-08-20T14:03:11;5.10;;;2.10;;
72113;SDS011;59989;46.220;19.888;2023-08-20T14:06:15;5.53;;;2.30;;
72113;SDS011;59989;46.220;19.888;2023-08-20T14:09:18;4.80;;;2.17;;
72113;SDS011;59989;46.220;19.888;2023-08-20T14:12:21;5.25;;;2.58;;
72113;SDS011;59989;46.220;19.888;2023-08-20T14:15:23;5.43;;;2.63;;
72113;SDS011;59989;46.220;19.888;2023-08-20T14:18:26;4.90;;;2.20;;
72113;SDS011;59989;46.220;19.888;2023-08-20T14:21:28;5.00;;;2.25;;
72113;SDS011;59989;46.220;19.888;2023-08-20T14:24:31;5.13;;;2.80;;
72113;SDS011;59989;46.220;19.888;2023-08-20T14:27:34;5.10;;;2.33;;
72113;SDS011;59989;46.220;19.888;2023-08-20T14:30:37;5.15;;;2.65;;
72113;SDS011;59989;46.220;19.888;2023-08-20T14:33:40;5.20;;;2.40;;
72113;SDS011;59989;46.220;19.888;2023-08-20T14:36:43;5.82;;;2.97;;
72113;SDS011;59989;46.220;19.888;2023-08-20T14:39:45;5.53;;;3.03;;
72113;SDS011;59989;46.220;19.888;2023-08-20T14:42:48;5.57;;;3.17;;
72113;SDS011;59989;46.220;19.888;2023-08-20T14:45:50;5.40;;;2.58;;
72113;SDS011;59989;46.220;19.888;2023-08-20T14:48:53;5.87;;;3.17;;
72113;SDS011;59989;46.220;19.888;2023-08-20T14:51:57;5.45;;;2.42;;
72113;SDS011;59989;46.220;19.888;2023-08-20T14:55:20;5.40;;;2.55;;
72113;SDS011;59989;46.220;19.888;2023-08-20T14:58:23;5.50;;;2.50;;
72113;SDS011;59989;46.220;19.888;2023-08-20T15:01:25;4.97;;;2.15;;
72113;SDS011;59989;46.220;19.888;2023-08-20T15:04:28;5.37;;;2.63;;
72113;SDS011;59989;46.220;19.888;2023-08-20T15:07:30;5.70;;;2.40;;
72113;SDS011;59989;46.220;19.888;2023-08-20T15:10:33;5.50;;;2.80;;
72113;SDS011;59989;46.220;19.888;2023-08-20T15:13:35;4.82;;;2.20;;
72113;SDS011;59989;46.220;19.888;2023-08-20T15:16:38;4.78;;;1.98;;
72113;SDS011;59989;46.220;19.888;2023-08-20T15:19:40;4.50;;;2.10;;
72113;SDS011;59989;46.220;19.888;2023-08-20T15:22:43;4.85;;;2.15;;
72113;SDS011;59989;46.220;19.888;2023-08-20T15:25:50;4.90;;;2.53;;
72113;SDS011;59989;46.220;19.888;2023-08-20T15:28:54;5.03;;;2.15;;
72113;SDS011;59989;46.220;19.888;2023-08-20T15:31:57;4.90;;;2.55;;
72113;SDS011;59989;46.220;19.888;2023-08-20T15:34:59;5.27;;;2.53;;
72113;SDS011;59989;46.220;19.888;2023-08-20T15:38:05;5.78;;;2.60;;
72113;SDS011;59989;46.220;19.888;2023-08-20T15:41:08;5.65;;;2.60;;
72113;SDS011;59989;46.220;19.888;2023-08-20T15:44:10;4.45;;;2.13;;
72113;SDS011;59989;46.220;19.888;2023-08-20T15:47:12;3.55;;;1.45;;
72113;SDS011;59989;46.220;19.888;2023-08-20T15:50:15;3.83;;;1.43;;
72113;SDS011;59989;46.220;19.888;2023-08-20T15:53:17;4.15;;;1.60;;
72113;SDS011;59989;46.220;19.888;2023-08-20T15:56:20;3.75;;;1.48;;
72113;SDS011;59989;46.220;19.888;2023-08-20T15:59:23;3.58;;;1.50;;
72113;SDS011;59989;46.220;19.888;2023-08-20T16:02:25;4.22;;;1.70;;
72113;SDS011;59989;46.220;19.888;2023-08-20T16:05:28;3.97;;;1.30;;
72113;SDS011;59989;46.220;19.888;2023-08-20T16:08:30;2.90;;;1.10;;
72113;SDS011;59989;46.220;19.888;2023-08-20T16:11:33;3.35;;;1.30;;
72113;SDS011;59989;46.220;19.888;2023-08-20T16:14:36;3.70;;;1.17;;
72113;SDS011;59989;46.220;19.888;2023-08-20T16:17:38;3.40;;;1.17;;
72113;SDS011;59989;46.220;19.888;2023-08-20T16:20:41;2.13;;;0.80;;
72113;SDS011;59989;46.220;19.888;2023-08-20T16:23:44;3.42;;;1.30;;
72113;SDS011;59989;46.220;19.888;2023-08-20T16:26:47;3.22;;;1.20;;
72113;SDS011;59989;46.220;19.888;2023-08-20T16:29:49;3.33;;;1.48;;
72113;SDS011;59989;46.220;19.888;2023-08-20T16:32:52;2.88;;;1.15;;
72113;SDS011;59989;46.220;19.888;2023-08-20T16:35:55;4.07;;;1.50;;
72113;SDS011;59989;46.220;19.888;2023-08-20T16:38:57;3.65;;;1.27;;
72113;SDS011;59989;46.220;19.888;2023-08-20T16:42:00;2.80;;;1.10;;
72113;SDS011;59989;46.220;19.888;2023-08-20T16:45:03;3.80;;;1.40;;
72113;SDS011;59989;46.220;19.888;2023-08-20T16:48:06;3.38;;;1.52;;
72113;SDS011;59989;46.220;19.888;2023-08-20T16:51:08;3.77;;;1.40;;
72113;SDS011;59989;46.220;19.888;2023-08-20T16:54:11;3.17;;;1.20;;
72113;SDS011;59989;46.220;19.888;2023-08-20T16:57:13;3.10;;;1.20;;
72113;SDS011;59989;46.220;19.888;2023-08-20T17:00:16;2.97;;;1.10;;
72113;SDS011;59989;46.220;19.888;2023-08-20T17:03:18;3.85;;;1.42;;
72113;SDS011;59989;46.220;19.888;2023-08-20T17:06:21;2.80;;;1.20;;
72113;SDS011;59989;46.220;19.888;2023-08-20T17:09:23;3.20;;;1.17;;
72113;SDS011;59989;46.220;19.888;2023-08-20T17:12:26;3.72;;;1.70;;
72113;SDS011;59989;46.220;19.888;2023-08-20T17:15:29;3.03;;;1.17;;
72113;SDS011;59989;46.220;19.888;2023-08-20T17:18:32;3.28;;;1.25;;
72113;SDS011;59989;46.220;19.888;2023-08-20T17:21:35;3.43;;;1.30;;
72113;SDS011;59989;46.220;19.888;2023-08-20T17:24:37;3.08;;;1.30;;
72113;SDS011;59989;46.220;19.888;2023-08-20T17:27:39;3.38;;;1.20;;
72113;SDS011;59989;46.220;19.888;2023-08-20T17:30:42;3.05;;;1.30;;
72113;SDS011;59989;46.220;19.888;2023-08-20T17:33:44;2.72;;;1.00;;
72113;SDS011;59989;46.220;19.888;2023-08-20T17:36:49;4.10;;;1.47;;
72113;SDS011;59989;46.220;19.888;2023-08-20T17:39:52;2.92;;;1.02;;
72113;SDS011;59989;46.220;19.888;2023-08-20T17:42:54;3.90;;;1.40;;
72113;SDS011;59989;46.220;19.888;2023-08-20T17:45:56;2.83;;;0.98;;
72113;SDS011;59989;46.220;19.888;2023-08-20T17:48:59;3.00;;;1.00;;
72113;SDS011;59989;46.220;19.888;2023-08-20T17:52:01;2.83;;;1.00;;
72113;SDS011;59989;46.220;19.888;2023-08-20T17:55:04;3.17;;;1.25;;
72113;SDS011;59989;46.220;19.888;2023-08-20T17:58:07;4.03;;;1.52;;
72113;SDS011;59989;46.220;19.888;2023-08-20T18:01:09;2.80;;;1.10;;
72113;SDS011;59989;46.220;19.888;2023-08-20T18:04:12;2.85;;;1.02;;
72113;SDS011;59989;46.220;19.888;2023-08-20T18:07:15;2.73;;;0.90;;
72113;SDS011;59989;46.220;19.888;2023-08-20T18:10:17;2.35;;;0.80;;
72113;SDS011;59989;46.220;19.888;2023-08-20T18:13:20;3.70;;;1.50;;
72113;SDS011;59989;46.220;19.888;2023-08-20T18:16:22;3.10;;;1.20;;
72113;SDS011;59989;46.220;19.888;2023-08-20T18:19:25;2.47;;;0.82;;
72113;SDS011;59989;46.220;19.888;2023-08-20T18:22:27;2.60;;;0.97;;